Address 0xb9F77e8FE9AEf5df3A4C3c465B9D88423e41F41a

 
Txn Hash Method
Block
From
To
Value [Txn Fee]
0xae587198280ab004c3504c422e5d825e74effe7b0a243f385fab1ffb9f553726Primary Sale219166112021-11-28 23:21:4251 mins ago0xb9f77e8fe9aef5df3a4c3c465b9d88423e41f41aOUT 0xbce1b23c7544422f1e2208d29a6a3aa9fabab2500 MATIC0.0221378575
0x9cd25aa2e5122a099144f9cd1e3dba5d63b3ff717a8fa7a705a2b78417810158Primary Sale219166112021-11-28 23:21:4251 mins ago0xb9f77e8fe9aef5df3a4c3c465b9d88423e41f41aOUT 0xbce1b23c7544422f1e2208d29a6a3aa9fabab2500 MATIC0.0221378575
0x7ed3e4d33154990210f91e81a6697687705bbca0658d1782aeff76b5d758d42fPrimary Sale219162732021-11-28 23:05:141 hr 7 mins ago0xb9f77e8fe9aef5df3a4c3c465b9d88423e41f41aOUT 0xbce1b23c7544422f1e2208d29a6a3aa9fabab2500 MATIC0.000541161204
0x482bea6d9fa4ac1e8b4ead371ab990edab7779654884e1d2dfc257b888800585Primary Sale219162732021-11-28 23:05:141 hr 7 mins ago0xb9f77e8fe9aef5df3a4c3c465b9d88423e41f41aOUT 0xbce1b23c7544422f1e2208d29a6a3aa9fabab2500 MATIC0.000572783808
0xac7fc7ba8f273090b72fd2a562ed2ae6f6936c94e6c095955f5fa3727c10fb63Primary Sale219162732021-11-28 23:05:141 hr 7 mins ago0xb9f77e8fe9aef5df3a4c3c465b9d88423e41f41aOUT 0xbce1b23c7544422f1e2208d29a6a3aa9fabab2500 MATIC0.000572783808
0x4d22888d811b96072dacec9410963ac792e0d8ad1fb6ecda13843220f53d42e1Primary Sale219147052021-11-28 22:10:492 hrs 2 mins ago0xb9f77e8fe9aef5df3a4c3c465b9d88423e41f41aOUT 0xbce1b23c7544422f1e2208d29a6a3aa9fabab2500 MATIC0.01097745
0x65245031a3b8b6d2f8c8cbd07c639442927de13d3e6d1cbdbd8c6e7840d53fa6Primary Sale219142542021-11-28 21:54:482 hrs 18 mins ago0xb9f77e8fe9aef5df3a4c3c465b9d88423e41f41aOUT 0xbce1b23c7544422f1e2208d29a6a3aa9fabab2500 MATIC0.01829375
0x35880cad0a6969917c8c9627fe0826633a5fe992a35428cff643e00e328d31afPrimary Sale219142542021-11-28 21:54:482 hrs 18 mins ago0xb9f77e8fe9aef5df3a4c3c465b9d88423e41f41aOUT 0xbce1b23c7544422f1e2208d29a6a3aa9fabab2500 MATIC0.01829375
0x5ddbb5d8a95af3c5a9cc6e0df455f835d60249ec870aab32ac7f9c38237d5848Primary Sale219137902021-11-28 21:38:052 hrs 34 mins ago0xb9f77e8fe9aef5df3a4c3c465b9d88423e41f41aOUT 0xbce1b23c7544422f1e2208d29a6a3aa9fabab2500 MATIC0.01097745
0xcd6a9bc6d0b8356037838db82f9af0310c8a1173d02221a348ae0e7b9a423911Primary Sale219133092021-11-28 21:21:352 hrs 51 mins ago0xb9f77e8fe9aef5df3a4c3c465b9d88423e41f41aOUT 0xbce1b23c7544422f1e2208d29a6a3aa9fabab2500 MATIC0.01097625
0x4fa566673f2ad81e4653911c7a56cd873c4b31b0976ddcd81e6ff4e3f6b42029Primary Sale219133092021-11-28 21:21:352 hrs 51 mins ago0xb9f77e8fe9aef5df3a4c3c465b9d88423e41f41aOUT 0xbce1b23c7544422f1e2208d29a6a3aa9fabab2500 MATIC0.01097709
0xb3a46d63922e9fa0175b59d3cc2bd6cbadbe8ede9f1cc8811633bb9268c615f3Primary Sale219133082021-11-28 21:21:332 hrs 51 mins ago0xb9f77e8fe9aef5df3a4c3c465b9d88423e41f41aOUT 0xbce1b23c7544422f1e2208d29a6a3aa9fabab2500 MATIC0.01097745
0xca2b50d9246b920a9dde25e8a1ba32d3234ecaa1cb98ea20615bc9b37f0d5e34Primary Sale219132142021-11-28 21:18:172 hrs 54 mins ago0xb9f77e8fe9aef5df3a4c3c465b9d88423e41f41aOUT 0xbce1b23c7544422f1e2208d29a6a3aa9fabab2500 MATIC0.01097625
0xbf6f276e5c84fcae39be6fed3a958292c01e958223e5360dd49533911df37533Primary Sale219132142021-11-28 21:18:172 hrs 54 mins ago0xb9f77e8fe9aef5df3a4c3c465b9d88423e41f41aOUT 0xbce1b23c7544422f1e2208d29a6a3aa9fabab2500 MATIC0.01097625
0xe7a897594a1b49e7da7b8460e40280b02e1584cdf924bff64e2b0ca22b0444f5Primary Sale219127422021-11-28 21:01:543 hrs 11 mins ago0xb9f77e8fe9aef5df3a4c3c465b9d88423e41f41aOUT 0xbce1b23c7544422f1e2208d29a6a3aa9fabab2500 MATIC0.000720087831
0x980bc5604113580dd7483c444368112eb7f57368060de155f10baa57b726282dPrimary Sale219124342021-11-28 20:51:183 hrs 21 mins ago0xb9f77e8fe9aef5df3a4c3c465b9d88423e41f41aOUT 0xbce1b23c7544422f1e2208d29a6a3aa9fabab2500 MATIC0.01097625
0xa517ef659d79f0c66474424706c437f38b8cc5b753445d9fc3776513ba4e8136Primary Sale219118632021-11-28 20:31:403 hrs 41 mins ago0xb9f77e8fe9aef5df3a4c3c465b9d88423e41f41aOUT 0xbce1b23c7544422f1e2208d29a6a3aa9fabab2500 MATIC0.01097745
0xe73ba057f6688ac3e0feff3e9f0a86a390d19625f020c057d70f1b344ff04091Primary Sale219118632021-11-28 20:31:403 hrs 41 mins ago0xb9f77e8fe9aef5df3a4c3c465b9d88423e41f41aOUT 0xbce1b23c7544422f1e2208d29a6a3aa9fabab2500 MATIC0.01097745
0xffb2c8732f12916bb7bf5538eb7d0a097fe8c1eff9d6a29439a8e919a19fc84ePrimary Sale219117332021-11-28 20:27:103 hrs 45 mins ago0xb9f77e8fe9aef5df3a4c3c465b9d88423e41f41aOUT 0xbce1b23c7544422f1e2208d29a6a3aa9fabab2500 MATIC0.01097625
0x261cc18e1ffb816ec02daa80dfd37272ea91074f114ef2a0347f7a4f459d2b08Primary Sale219117332021-11-28 20:27:103 hrs 45 mins ago0xb9f77e8fe9aef5df3a4c3c465b9d88423e41f41aOUT 0xbce1b23c7544422f1e2208d29a6a3aa9fabab2500 MATIC0.01097625
0xcab0011d77bab5f669f3f9c9a88aa56ae16e04a071933012c14d9b55a0290263Primary Sale219117322021-11-28 20:27:083 hrs 45 mins ago0xb9f77e8fe9aef5df3a4c3c465b9d88423e41f41aOUT 0xbce1b23c7544422f1e2208d29a6a3aa9fabab2500 MATIC0.01097625
0xcf30e5b7a263df9b5367fdc9674347225f21c6bd43ab4d99aaee2c3d79678574Primary Sale219115172021-11-28 20:19:463 hrs 53 mins ago0xb9f77e8fe9aef5df3a4c3c465b9d88423e41f41aOUT 0xbce1b23c7544422f1e2208d29a6a3aa9fabab2500 MATIC0.01096986
0x87ed543b96a18751a7cc7b33ea7db381becdb1b75d1b53adfd3747dd9de6f173Primary Sale219115172021-11-28 20:19:463 hrs 53 mins ago0xb9f77e8fe9aef5df3a4c3c465b9d88423e41f41aOUT 0xbce1b23c7544422f1e2208d29a6a3aa9fabab2500 MATIC0.01097625
0xc11789f571273ae0876fb7f74d7c3d5d822048af6395d92c10df582f61416001Primary Sale219115172021-11-28 20:19:463 hrs 53 mins ago0xb9f77e8fe9aef5df3a4c3c465b9d88423e41f41aOUT 0xbce1b23c7544422f1e2208d29a6a3aa9fabab2500 MATIC0.01097625
0xce8df75600e0a31ea7420290f3e8fed9e70a96a08abc61a2d0bfebab004ee6f1Primary Sale219115172021-11-28 20:19:463 hrs 53 mins ago0xb9f77e8fe9aef5df3a4c3c465b9d88423e41f41aOUT 0xbce1b23c7544422f1e2208d29a6a3aa9fabab2500 MATIC0.01097625
[ Download CSV Export 
Parent Txn Hash Block From To Value
Loading

Contract Name:
0 MATIC

Compiler Version
0

Optimization Enabled:
0 MATIC

Other Settings:
-NA-
Block Transaction Gas Used Reward
Age Block Fee Address BC Fee Address Voting Power Jailed Incoming
Block Uncle Number Difficulty Gas Used Reward
Loading
Loading
Make sure to use the "Vote Down" button for any spammy posts, and the "Vote Up" for interesting conversations.